Time;durP1;ratioP1;P1;durP2;ratioP2;P2;SDS_P1;SDS_P2;PMS_P1;PMS_P2;Temp;Humidity;BMP_temperature;BMP_pressure;BME280_temperature;BME280_humidity;BME280_pressure;Samples;Min_cycle;Max_cycle;Signal;HPM_P1;HPM_P2
2023/08/03 00:00:04;;;;;;;17.65;13.07;;;;;;;;;;5067979;28;20039;-53
2023/08/03 00:02:35;;;;;;;17.90;11.80;;;;;;;;;;5067953;28;20086;-52
2023/08/03 00:05:05;;;;;;;19.10;11.00;;;;;;;;;;5068084;28;20040;-51
2023/08/03 00:07:33;;;;;;;17.35;10.40;;;;;;;;;;5068018;28;20039;-52
2023/08/03 00:10:00;;;;;;;13.68;8.95;;;;;;;;;;5068016;28;20277;-55
2023/08/03 00:12:26;;;;;;;13.07;8.15;;;;;;;;;;5067770;28;20029;-51
2023/08/03 00:14:53;;;;;;;14.23;6.75;;;;;;;;;;5067933;28;20033;-55
2023/08/03 00:17:21;;;;;;;16.85;6.85;;;;;;;;;;5067601;28;20043;-51
2023/08/03 00:19:47;;;;;;;22.05;7.72;;;;;;;;;;5067665;28;20021;-50
2023/08/03 00:22:14;;;;;;;15.55;7.25;;;;;;;;;;5067609;28;20080;-54
2023/08/03 00:24:41;;;;;;;13.45;6.80;;;;;;;;;;5067718;28;20028;-51
2023/08/03 00:27:07;;;;;;;13.65;6.43;;;;;;;;;;5067482;28;20103;-55
2023/08/03 00:29:35;;;;;;;15.40;5.88;;;;;;;;;;5067538;28;20052;-53
2023/08/03 00:32:02;;;;;;;16.88;5.60;;;;;;;;;;5067538;28;20154;-48
2023/08/03 00:34:32;;;;;;;9.98;4.35;;;;;;;;;;5066122;28;20070;-50
2023/08/03 00:36:58;;;;;;;13.93;5.68;;;;;;;;;;5067484;28;20028;-51
2023/08/03 00:39:25;;;;;;;13.50;5.53;;;;;;;;;;5067520;28;20033;-50
2023/08/03 00:41:52;;;;;;;13.85;5.53;;;;;;;;;;5067548;28;20063;-53
2023/08/03 00:44:19;;;;;;;18.45;4.93;;;;;;;;;;5067071;28;20066;-51
2023/08/03 00:46:46;;;;;;;9.27;4.45;;;;;;;;;;5067766;28;20032;-53
2023/08/03 00:49:13;;;;;;;11.15;3.35;;;;;;;;;;5067874;28;20085;-51
2023/08/03 00:51:42;;;;;;;10.52;3.45;;;;;;;;;;5067785;28;20180;-50
2023/08/03 00:54:09;;;;;;;9.93;4.00;;;;;;;;;;5067058;28;20041;-55
2023/08/03 00:56:36;;;;;;;15.90;7.75;;;;;;;;;;5067365;28;20020;-51
2023/08/03 00:59:04;;;;;;;17.38;5.38;;;;;;;;;;5067380;28;20276;-53
2023/08/03 01:01:31;;;;;;;13.68;4.47;;;;;;;;;;5066950;28;20104;-53
2023/08/03 01:03:58;;;;;;;9.93;2.92;;;;;;;;;;5066964;28;20017;-52
2023/08/03 01:06:25;;;;;;;8.02;2.70;;;;;;;;;;5066153;28;20096;-45
2023/08/03 01:08:54;;;;;;;8.65;2.70;;;;;;;;;;5073467;28;20131;-52
2023/08/03 01:11:21;;;;;;;5.88;2.45;;;;;;;;;;5075894;28;20305;-55
2023/08/03 01:13:48;;;;;;;8.10;3.20;;;;;;;;;;5086734;28;20359;-55
2023/08/03 01:16:15;;;;;;;8.85;3.13;;;;;;;;;;5086632;28;20162;-56
2023/08/03 01:18:42;;;;;;;7.47;2.80;;;;;;;;;;5069510;28;20031;-49
2023/08/03 01:21:10;;;;;;;8.18;3.10;;;;;;;;;;5071667;28;20028;-50
2023/08/03 01:23:36;;;;;;;6.72;2.60;;;;;;;;;;5059943;28;20040;-49
2023/08/03 01:26:03;;;;;;;6.22;2.35;;;;;;;;;;5050491;28;20085;-50
2023/08/03 01:28:30;;;;;;;10.48;2.30;;;;;;;;;;5046504;28;20044;-49
2023/08/03 01:30:56;;;;;;;29.13;9.48;;;;;;;;;;5046785;28;20029;-52
2023/08/03 01:33:24;;;;;;;22.60;7.25;;;;;;;;;;5051557;28;20375;-51
2023/08/03 01:35:52;;;;;;;14.93;4.65;;;;;;;;;;5057351;28;20025;-51
2023/08/03 01:38:19;;;;;;;15.65;4.28;;;;;;;;;;5060581;28;20064;-48
2023/08/03 01:40:45;;;;;;;27.17;7.03;;;;;;;;;;5059544;28;20051;-45
2023/08/03 01:43:12;;;;;;;17.00;5.20;;;;;;;;;;5066331;28;20059;-49
2023/08/03 01:45:39;;;;;;;16.60;4.65;;;;;;;;;;5066092;28;20021;-53
2023/08/03 01:48:06;;;;;;;18.35;5.13;;;;;;;;;;5064051;28;20017;-53
2023/08/03 01:50:32;;;;;;;20.33;6.82;;;;;;;;;;5059391;28;20400;-53
2023/08/03 01:53:00;;;;;;;11.73;5.28;;;;;;;;;;5046716;28;20087;-49
2023/08/03 01:55:27;;;;;;;11.57;3.92;;;;;;;;;;5046136;28;20337;-49
2023/08/03 01:57:55;;;;;;;11.75;3.63;;;;;;;;;;5046270;28;20037;-44
2023/08/03 02:00:24;;;;;;;8.52;2.85;;;;;;;;;;5047992;28;20033;-47
2023/08/03 02:02:51;;;;;;;13.90;3.03;;;;;;;;;;5056890;28;20021;-51
2023/08/03 02:05:17;;;;;;;11.93;3.20;;;;;;;;;;5057836;28;20088;-48
2023/08/03 02:07:55;;;;;;;7.13;2.47;;;;;;;;;;5059262;28;20083;-42
2023/08/03 02:10:25;;;;;;;7.75;2.20;;;;;;;;;;5061104;28;20029;-50
2023/08/03 02:12:52;;;;;;;11.48;2.40;;;;;;;;;;5046102;28;20225;-48
2023/08/03 02:15:19;;;;;;;6.25;2.97;;;;;;;;;;5055554;28;20031;-54
2023/08/03 02:17:46;;;;;;;11.30;2.78;;;;;;;;;;5053821;28;20032;-49
2023/08/03 02:20:13;;;;;;;9.13;2.65;;;;;;;;;;5053702;28;20070;-53
2023/08/03 02:22:42;;;;;;;6.05;1.85;;;;;;;;;;5045959;28;20201;-54
2023/08/03 02:25:09;;;;;;;7.57;2.20;;;;;;;;;;5045837;28;20124;-49
2023/08/03 02:27:36;;;;;;;5.55;2.10;;;;;;;;;;5060925;28;20029;-50
2023/08/03 02:30:03;;;;;;;9.55;3.28;;;;;;;;;;5051965;28;20018;-47
2023/08/03 02:32:29;;;;;;;7.47;2.00;;;;;;;;;;5051547;28;20033;-45
2023/08/03 02:34:56;;;;;;;3.97;1.42;;;;;;;;;;5044750;28;20256;-51
2023/08/03 02:37:23;;;;;;;7.25;1.70;;;;;;;;;;5045477;28;20055;-49
2023/08/03 02:39:50;;;;;;;7.47;1.95;;;;;;;;;;5057292;28;20029;-43
2023/08/03 02:42:16;;;;;;;3.88;1.30;;;;;;;;;;5055628;28;20036;-57
2023/08/03 02:44:43;;;;;;;8.20;1.33;;;;;;;;;;5052892;28;20052;-50
2023/08/03 02:47:12;;;;;;;6.05;1.30;;;;;;;;;;5059227;28;20114;-50
2023/08/03 02:49:39;;;;;;;9.65;1.30;;;;;;;;;;5064761;28;20325;-50
2023/08/03 02:52:05;;;;;;;5.93;0.88;;;;;;;;;;5058164;28;20040;-47
2023/08/03 02:54:32;;;;;;;5.55;1.10;;;;;;;;;;5047509;28;20305;-48
2023/08/03 02:56:59;;;;;;;6.70;1.33;;;;;;;;;;5047473;28;20060;-54
2023/08/03 02:59:25;;;;;;;9.05;1.40;;;;;;;;;;5053170;28;20212;-49
2023/08/03 03:01:52;;;;;;;10.07;1.27;;;;;;;;;;5044744;28;20049;-48
2023/08/03 03:04:18;;;;;;;4.50;1.42;;;;;;;;;;5060016;28;20225;-50
2023/08/03 03:06:45;;;;;;;9.95;1.60;;;;;;;;;;5053146;28;20025;-51
2023/08/03 03:09:14;;;;;;;14.57;0.95;;;;;;;;;;5056163;28;20096;-49
2023/08/03 03:11:41;;;;;;;7.68;1.38;;;;;;;;;;5048928;28;20037;-50
2023/08/03 03:14:08;;;;;;;8.25;1.42;;;;;;;;;;5055061;28;20088;-50
2023/08/03 03:16:34;;;;;;;10.00;2.28;;;;;;;;;;5049421;28;20040;-49
2023/08/03 03:19:01;;;;;;;9.77;2.67;;;;;;;;;;5062304;28;20040;-53
2023/08/03 03:21:28;;;;;;;12.23;2.85;;;;;;;;;;5050928;28;20021;-43
2023/08/03 03:23:54;;;;;;;45.92;16.85;;;;;;;;;;5053385;28;20017;-43
2023/08/03 03:26:21;;;;;;;22.65;8.82;;;;;;;;;;5044266;28;20191;-48
2023/08/03 03:28:48;;;;;;;10.90;5.20;;;;;;;;;;5044339;28;20017;-47
2023/08/03 03:31:14;;;;;;;10.93;3.67;;;;;;;;;;5051896;28;20033;-49
2023/08/03 03:33:41;;;;;;;9.48;2.65;;;;;;;;;;5047687;28;20025;-46
2023/08/03 03:36:08;;;;;;;8.23;2.83;;;;;;;;;;5062108;28;20285;-48
2023/08/03 03:38:34;;;;;;;8.55;2.38;;;28.00;99.90;;;;;;5047700;28;20080;-50
2023/08/03 03:41:01;;;;;;;29.55;26.65;;;;;;;;;;5052940;28;20045;-50
2023/08/03 03:43:29;;;;;;;8.25;4.65;;;;;;;;;;5043926;28;20037;-50
2023/08/03 03:45:56;;;;;;;6.95;2.92;;;27.70;99.90;;;;;;5044375;28;20032;-49
2023/08/03 03:48:22;;;;;;;7.30;2.40;;;27.60;99.90;;;;;;5044111;28;20029;-50
2023/08/03 03:50:49;;;;;;;4.82;1.90;;;27.70;99.90;;;;;;5043889;28;20017;-54
2023/08/03 03:53:15;;;;;;;3.53;1.90;;;27.60;99.90;;;;;;5044175;28;20025;-51
2023/08/03 03:55:42;;;;;;;33.38;30.48;;;;;;;;;;5043991;28;20035;-53
2023/08/03 03:58:08;;;;;;;25.15;22.88;;;27.70;99.90;;;;;;5044310;28;20071;-49
2023/08/03 04:00:39;;;;;;;14.48;13.18;;;27.50;99.90;;;;;;5044455;28;20053;-51
2023/08/03 04:03:07;;;;;;;6.55;5.25;;;27.50;99.90;;;;;;5044162;28;20037;-49
2023/08/03 04:05:35;;;;;;;7.38;3.63;;;27.60;99.90;;;;;;5043973;28;20018;-49
2023/08/03 04:08:01;;;;;;;6.22;2.47;;;27.60;99.90;;;;;;5051735;28;20038;-51
2023/08/03 04:10:29;;;;;;;4.80;2.22;;;27.50;99.90;;;;;;5052506;28;20025;-52
2023/08/03 04:12:56;;;;;;;5.65;1.85;;;;;;;;;;5044618;28;20064;-49
2023/08/03 04:15:22;;;;;;;8.82;1.63;;;27.60;99.90;;;;;;5053386;28;20194;-49
2023/08/03 04:17:49;;;;;;;4.18;1.73;;;;;;;;;;5051454;28;20034;-51
2023/08/03 04:20:16;;;;;;;3.28;1.10;;;29.00;99.90;;;;;;5055079;28;20029;-51
2023/08/03 04:22:44;;;;;;;5.30;1.40;;;27.60;99.90;;;;;;5044345;28;20037;-50
2023/08/03 04:25:10;;;;;;;3.38;1.02;;;;;;;;;;5043902;28;20025;-57
2023/08/03 04:27:38;;;;;;;5.72;1.08;;;27.60;99.90;;;;;;5046575;28;20025;-50
2023/08/03 04:30:05;;;;;;;2.92;0.85;;;27.60;99.90;;;;;;5051880;28;20067;-49
2023/08/03 04:32:32;;;;;;;2.83;0.70;;;27.60;99.90;;;;;;5051890;28;20301;-50
2023/08/03 04:34:59;;;;;;;3.30;1.00;;;27.50;99.90;;;;;;5052237;28;20056;-51
2023/08/03 04:37:25;;;;;;;4.63;0.90;;;27.50;99.90;;;;;;5042923;28;20044;-49
2023/08/03 04:39:52;;;;;;;4.18;0.88;;;;;;;;;;5043851;28;20033;-50
2023/08/03 04:42:18;;;;;;;7.13;1.05;;;27.60;99.90;;;;;;5049466;28;20033;-52
2023/08/03 04:44:45;;;;;;;3.58;0.77;;;27.70;99.90;;;;;;5059205;28;20342;-53
2023/08/03 04:47:11;;;;;;;2.40;0.70;;;27.60;99.90;;;;;;5048428;28;20036;-50
2023/08/03 04:49:38;;;;;;;3.35;0.85;;;27.70;99.90;;;;;;5047568;28;20022;-52
2023/08/03 04:52:05;;;;;;;3.00;0.90;;;27.60;99.90;;;;;;5047926;28;20070;-51
2023/08/03 04:54:32;;;;;;;3.95;0.93;;;27.60;99.90;;;;;;5047180;28;20025;-49
2023/08/03 04:57:00;;;;;;;4.25;0.77;;;27.60;99.90;;;;;;5047722;28;20105;-53
2023/08/03 04:59:26;;;;;;;1.83;0.80;;;27.60;99.90;;;;;;5052023;28;20037;-48
2023/08/03 05:01:53;;;;;;;4.03;0.70;;;27.60;99.90;;;;;;5065554;28;20029;-58
2023/08/03 05:04:19;;;;;;;1.98;0.65;;;27.60;99.90;;;;;;5067267;28;20013;-50
2023/08/03 05:06:46;;;;;;;3.60;0.93;;;27.60;99.90;;;;;;5067190;28;20052;-49
2023/08/03 05:09:12;;;;;;;3.85;0.90;;;;;;;;;;5067092;28;20027;-48
2023/08/03 05:11:39;;;;;;;3.92;0.98;;;27.60;99.90;;;;;;5059899;28;20028;-50
2023/08/03 05:14:05;;;;;;;2.00;0.80;;;27.60;99.90;;;;;;5050561;28;20025;-49
2023/08/03 05:16:32;;;;;;;2.45;1.05;;;27.50;99.90;;;;;;5047665;28;20052;-51
2023/08/03 05:18:58;;;;;;;2.47;1.15;;;27.50;99.90;;;;;;5047170;28;20018;-50
2023/08/03 05:21:25;;;;;;;2.60;0.80;;;27.50;99.90;;;;;;5046936;28;20053;-47
2023/08/03 05:23:52;;;;;;;2.25;0.70;;;27.60;99.90;;;;;;5047059;28;20017;-53
2023/08/03 05:26:19;;;;;;;3.00;1.13;;;27.60;99.90;;;;;;5047303;28;20029;-53
2023/08/03 05:28:45;;;;;;;7.05;1.08;;;27.60;99.90;;;;;;5048936;28;20024;-49
2023/08/03 05:31:12;;;;;;;2.60;0.82;;;27.50;99.90;;;;;;5054981;28;20032;-53
2023/08/03 05:33:38;;;;;;;3.97;0.88;;;27.60;99.90;;;;;;5046226;28;20025;-50
2023/08/03 05:36:05;;;;;;;6.03;1.13;;;27.70;99.90;;;;;;5046082;28;20034;-51
2023/08/03 05:38:31;;;;;;;3.70;0.70;;;27.70;99.90;;;;;;5046177;28;20029;-53
2023/08/03 05:40:58;;;;;;;3.83;0.88;;;27.70;99.90;;;;;;5045983;28;20030;-50
2023/08/03 05:43:28;;;;;;;3.47;0.82;;;27.70;99.90;;;;;;5045801;28;20077;-51
2023/08/03 05:46:00;;;;;;;4.63;0.88;;;27.70;99.90;;;;;;5045989;28;20017;-50
2023/08/03 05:48:30;;;;;;;2.30;0.80;;;27.60;99.90;;;;;;5046273;28;20035;-51
2023/08/03 05:50:57;;;;;;;2.05;0.70;;;27.60;99.90;;;;;;5045781;28;20021;-50
2023/08/03 05:53:24;;;;;;;5.20;1.10;;;27.60;99.90;;;;;;5045961;28;20035;-54
2023/08/03 05:55:51;;;;;;;1.63;0.80;;;27.60;99.90;;;;;;5045445;28;20033;-53
2023/08/03 05:58:18;;;;;;;4.88;1.00;;;27.60;99.90;;;;;;5057282;28;20121;-50
2023/08/03 06:00:49;;;;;;;3.00;1.02;;;27.50;99.90;;;;;;5052927;28;20044;-51
2023/08/03 06:03:18;;;;;;;4.27;1.03;;;27.60;99.90;;;;;;5065698;28;20029;-52
2023/08/03 06:05:49;;;;;;;3.28;0.90;;;27.60;99.90;;;;;;5065771;28;20267;-49
2023/08/03 06:08:23;;;;;;;2.08;0.88;;;27.70;99.90;;;;;;5065651;28;20332;-49
2023/08/03 06:10:55;;;;;;;3.22;1.00;;;27.60;99.90;;;;;;5065697;28;20017;-49
2023/08/03 06:13:35;;;;;;;2.53;0.82;;;27.60;99.90;;;;;;5065466;28;20035;-50
2023/08/03 06:16:12;;;;;;;3.88;0.85;;;27.50;99.90;;;;;;5065356;28;20029;-57
2023/08/03 06:18:48;;;;;;;2.53;0.77;;;27.50;99.90;;;;;;5065594;28;20249;-54
2023/08/03 06:21:16;;;;;;;8.35;1.27;;;27.50;99.90;;;;;;5065539;28;20029;-52
2023/08/03 06:23:47;;;;;;;2.47;1.08;;;27.50;99.90;;;;;;5065339;28;20049;-50
2023/08/03 06:26:16;;;;;;;2.25;0.98;;;27.50;99.90;;;;;;5059428;28;20025;-57
2023/08/03 06:28:44;;;;;;;2.63;0.98;;;27.60;99.90;;;;;;5051239;28;20021;-53
2023/08/03 06:31:18;;;;;;;3.78;1.00;;;27.60;99.90;;;;;;5045218;28;20029;-51
2023/08/03 06:33:47;;;;;;;2.92;0.50;;;27.70;99.90;;;;;;5049706;28;20071;-54
2023/08/03 06:36:33;;;;;;;8.02;1.00;;;;;;;;;;5065105;28;20281;-49
2023/08/03 06:39:00;;;;;;;4.00;1.00;;;;;;;;;;5065024;28;20209;-48
2023/08/03 06:41:27;;;;;;;2.28;0.60;;;27.50;99.90;;;;;;5065142;28;20033;-48
2023/08/03 06:43:54;;;;;;;2.90;0.73;;;;;;;;;;5063586;28;20036;-49
2023/08/03 06:46:22;;;;;;;3.50;0.75;;;;;;;;;;5064940;28;20029;-48
2023/08/03 06:48:49;;;;;;;4.90;0.80;;;;;;;;;;5062958;28;20025;-48
2023/08/03 06:51:16;;;;;;;1.58;0.65;;;;;;;;;;5060204;28;20100;-58
2023/08/03 06:53:43;;;;;;;2.45;0.70;;;;;;;;;;5055266;28;20013;-51
2023/08/03 06:56:09;;;;;;;1.85;0.65;;;;;;;;;;5054413;28;20045;-52
2023/08/03 06:58:36;;;;;;;4.50;0.82;;;;;;;;;;5053353;28;20032;-55
2023/08/03 07:01:03;;;;;;;3.05;0.73;;;27.90;99.90;;;;;;5054967;28;20082;-53
2023/08/03 07:03:30;;;;;;;4.30;0.70;;;27.60;99.90;;;;;;5054411;28;20021;-53
2023/08/03 07:05:59;;;;;;;3.65;0.90;;;27.60;99.90;;;;;;5053302;28;20040;-49
2023/08/03 07:08:25;;;;;;;4.72;0.60;;;27.50;99.90;;;;;;5054177;28;20025;-52
2023/08/03 07:10:52;;;;;;;2.63;0.82;;;27.50;99.90;;;;;;5054332;28;20025;-49
2023/08/03 07:13:18;;;;;;;11.95;1.25;;;27.50;99.90;;;;;;5053068;28;20021;-54
2023/08/03 07:15:45;;;;;;;5.60;0.70;;;27.50;99.90;;;;;;5054819;28;20044;-49
2023/08/03 07:18:11;;;;;;;4.20;0.80;;;27.50;99.90;;;;;;5054707;28;20038;-53
2023/08/03 07:20:38;;;;;;;9.23;1.30;;;27.40;99.90;;;;;;5053004;28;20021;-50
2023/08/03 07:23:07;;;;;;;4.15;0.90;;;27.40;99.90;;;;;;5064802;28;20205;-50
2023/08/03 07:25:34;;;;;;;5.22;0.90;;;;;;;;;;5064610;28;20033;-51
2023/08/03 07:28:00;;;;;;;5.63;1.13;;;27.40;99.90;;;;;;5064693;28;20284;-52
2023/08/03 07:30:27;;;;;;;1.70;0.70;;;27.40;99.90;;;;;;5064679;28;20024;-55
2023/08/03 07:32:54;;;;;;;4.30;0.90;;;27.40;99.90;;;;;;5064695;28;20147;-53
2023/08/03 07:35:20;;;;;;;2.45;0.77;;;27.40;99.90;;;;;;5064150;28;20213;-49
2023/08/03 07:37:47;;;;;;;5.47;1.00;;;27.40;99.90;;;;;;5064437;28;20029;-49
2023/08/03 07:40:13;;;;;;;6.78;1.48;;;27.30;99.90;;;;;;5064662;28;20060;-50
2023/08/03 07:42:40;;;;;;;12.15;1.83;;;27.30;99.90;;;;;;5064611;28;20055;-51
2023/08/03 07:45:07;;;;;;;9.68;1.52;;;27.20;99.90;;;;;;5064080;28;20079;-56
2023/08/03 07:47:34;;;;;;;15.35;2.08;;;27.30;99.90;;;;;;5064314;28;20028;-50
2023/08/03 07:50:02;;;;;;;15.85;2.22;;;27.40;99.90;;;;;;5063979;28;20248;-55
2023/08/03 07:52:28;;;;;;;9.60;2.40;;;27.30;99.90;;;;;;5064117;28;20032;-48
2023/08/03 07:54:55;;;;;;;18.73;2.28;;;27.30;99.90;;;;;;5063948;28;20033;-49
2023/08/03 07:57:21;;;;;;;16.92;2.35;;;27.30;99.90;;;;;;5062799;28;20021;-50
2023/08/03 07:59:49;;;;;;;16.73;2.38;;;27.40;99.90;;;;;;5064043;28;20021;-50
2023/08/03 08:02:16;;;;;;;9.60;1.60;;;27.40;99.90;;;;;;5063858;28;20082;-55
2023/08/03 08:04:43;;;;;;;9.95;1.48;;;27.30;99.90;;;;;;5063775;28;20021;-50
2023/08/03 08:07:09;;;;;;;4.20;0.90;;;27.30;99.90;;;;;;5064233;28;20031;-54
2023/08/03 08:09:36;;;;;;;3.35;0.95;;;27.30;99.90;;;;;;5063649;28;20033;-52
2023/08/03 08:12:06;;;;;;;5.57;0.98;;;27.30;99.90;;;;;;5064301;28;20025;-49
2023/08/03 08:14:33;;;;;;;4.53;0.80;;;27.20;99.90;;;;;;5064098;28;20032;-53
2023/08/03 08:17:02;;;;;;;4.20;0.73;;;27.30;99.90;;;;;;5064044;28;20037;-49
2023/08/03 08:19:29;;;;;;;3.70;0.80;;;27.30;99.90;;;;;;5066580;28;20025;-52
2023/08/03 08:21:56;;;;;;;4.75;0.85;;;27.30;99.90;;;;;;5068064;28;20033;-49
2023/08/03 08:24:22;;;;;;;6.57;1.17;;;27.20;99.90;;;;;;5067434;28;20217;-49
2023/08/03 08:26:49;;;;;;;3.70;0.68;;;27.30;99.90;;;;;;5067849;28;20021;-49
2023/08/03 08:29:16;;;;;;;5.10;1.08;;;27.20;99.90;;;;;;5067826;28;20162;-48
2023/08/03 08:31:42;;;;;;;7.25;0.93;;;27.20;99.90;;;;;;5067780;28;20100;-53
2023/08/03 08:34:09;;;;;;;9.02;1.10;;;27.20;99.90;;;;;;5067264;28;20035;-51
2023/08/03 08:36:36;;;;;;;7.45;1.10;;;27.10;99.90;;;;;;5067545;28;20075;-49
2023/08/03 08:39:03;;;;;;;2.97;0.80;;;27.30;99.90;;;;;;5067064;28;20099;-50
2023/08/03 08:41:29;;;;;;;3.53;0.98;;;27.20;99.90;;;;;;5067429;28;20025;-49
2023/08/03 08:43:56;;;;;;;4.15;0.88;;;;;;;;;;5067424;28;20087;-53
2023/08/03 08:46:23;;;;;;;5.93;0.90;;;26.90;99.90;;;;;;5067178;28;20036;-50
2023/08/03 08:48:50;;;;;;;8.13;0.85;;;27.20;99.90;;;;;;5066930;28;20221;-52
2023/08/03 08:51:18;;;;;;;3.30;0.90;;;;;;;;;;5067059;28;20240;-49
2023/08/03 08:53:45;;;;;;;3.03;1.02;;;;;;;;;;5067571;28;20047;-54
2023/08/03 08:56:12;;;;;;;5.60;1.08;;;;;;;;;;5067248;28;20032;-48
2023/08/03 08:58:38;;;;;;;5.88;1.17;;;;;;;;;;5067550;28;20029;-49
2023/08/03 09:01:05;;;;;;;8.50;1.10;;;;;;;;;;5067327;28;20325;-49
2023/08/03 09:03:56;;;;;;;3.97;0.88;;;;;;;;;;5066892;28;20257;-49
2023/08/03 09:06:23;;;;;;;4.70;1.00;;;;;;;;;;5066754;28;20131;-49
2023/08/03 09:08:51;;;;;;;6.53;1.48;;;;;;;;;;5067036;28;20381;-53
2023/08/03 09:11:18;;;;;;;7.85;1.33;;;;;;;;;;5067211;28;20029;-52
2023/08/03 09:13:46;;;;;;;6.43;1.10;;;;;;;;;;5066502;28;20051;-49
2023/08/03 09:16:23;;;;;;;5.60;0.85;;;;;;;;;;5066911;28;20194;-52
2023/08/03 09:18:50;;;;;;;5.68;0.90;;;;;;;;;;5066640;28;20029;-49
2023/08/03 09:21:19;;;;;;;13.05;1.52;;;;;;;;;;5066535;28;20029;-48
2023/08/03 09:23:46;;;;;;;6.60;1.00;;;;;;;;;;5066495;28;20021;-51
2023/08/03 09:26:13;;;;;;;4.22;1.00;;;;;;;;;;5066778;28;20092;-49
2023/08/03 09:28:41;;;;;;;9.05;1.33;;;;;;;;;;5066525;28;20052;-53
2023/08/03 09:31:08;;;;;;;8.30;1.08;;;;;;;;;;5065934;28;20032;-48
2023/08/03 09:33:35;;;;;;;1.88;0.80;;;;;;;;;;5081346;28;20025;-53
2023/08/03 09:36:02;;;;;;;4.20;1.30;;;;;;;;;;5046239;28;20041;-49
2023/08/03 09:38:29;;;;;;;7.47;1.02;;;;;;;;;;5046493;28;20029;-51
2023/08/03 09:40:56;;;;;;;6.85;1.10;;;;;;;;;;5046151;28;20029;-50
2023/08/03 09:43:24;;;;;;;4.75;0.98;;;;;;;;;;5045966;28;20037;-52
2023/08/03 09:45:52;;;;;;;5.45;1.00;;;;;;;;;;5046289;28;20313;-50
2023/08/03 09:48:22;;;;;;;6.00;1.17;;;;;;;;;;5046208;28;20057;-53
2023/08/03 09:50:51;;;;;;;3.10;1.27;;;;;;;;;;5048673;28;20025;-50
2023/08/03 09:53:21;;;;;;;5.93;2.00;;;;;;;;;;5045868;28;20021;-51
2023/08/03 09:55:57;;;;;;;5.40;2.00;;;;;;;;;;5045803;28;20254;-51
2023/08/03 09:58:28;;;;;;;4.65;1.92;;;;;;;;;;5046019;28;20037;-50
2023/08/03 10:00:56;;;;;;;8.68;2.50;;;;;;;;;;5046099;28;20029;-49
2023/08/03 10:03:24;;;;;;;5.18;2.10;;;;;;;;;;5063754;28;20031;-51
2023/08/03 10:05:52;;;;;;;4.93;2.45;;;;;;;;;;5065985;28;20023;-50
2023/08/03 10:08:26;;;;;;;6.43;2.63;;;;;;;;;;5065825;28;20028;-51
2023/08/03 10:10:55;;;;;;;7.57;3.20;;;;;;;;;;5065442;28;20031;-49
2023/08/03 10:13:24;;;;;;;9.82;4.30;;;;;;;;;;5065597;28;20029;-49
2023/08/03 10:15:51;;;;;;;13.93;4.75;;;;;;;;;;5065632;28;20029;-54
2023/08/03 10:18:18;;;;;;;12.65;4.43;;;;;;;;;;5065942;28;20270;-54
2023/08/03 10:20:45;;;;;;;7.75;3.38;;;;;;;;;;5065340;28;20063;-50
2023/08/03 10:23:14;;;;;;;5.68;2.90;;;;;;;;;;5065287;28;20033;-51
2023/08/03 10:25:54;;;;;;;9.15;2.60;;;;;;;;;;5065568;28;20036;-49
2023/08/03 10:28:22;;;;;;;7.82;2.35;;;;;;;;;;5065300;28;20048;-49
2023/08/03 10:31:03;;;;;;;9.60;2.85;;;;;;;;;;5064940;28;20029;-48
2023/08/03 10:33:49;;;;;;;8.82;2.60;;;;;;;;;;5065659;28;20035;-52
2023/08/03 10:36:31;;;;;;;6.32;2.67;;;;;;;;;;5060359;28;20350;-51
2023/08/03 10:39:02;;;;;;;3.58;2.17;;;;;;;;;;5045489;28;20317;-51
2023/08/03 10:41:36;;;;;;;9.80;2.40;;;;;;;;;;5045360;28;20045;-56
2023/08/03 10:44:09;;;;;;;4.90;2.08;;;;;;;;;;5044796;28;20276;-50
2023/08/03 10:46:49;;;;;;;7.20;2.38;;;;;;;;;;5045186;28;20096;-54
2023/08/03 10:49:38;;;;;;;7.53;2.20;;;;;;;;;;5045280;28;20028;-50
2023/08/03 10:52:20;;;;;;;7.13;2.17;;;;;;;;;;5044738;28;20040;-51
2023/08/03 10:54:48;;;;;;;6.55;2.33;;;;;;;;;;5045003;28;20366;-49
2023/08/03 10:57:15;;;;;;;6.10;2.17;;;;;;;;;;5045086;28;20037;-48
2023/08/03 10:59:43;;;;;;;6.30;2.20;;;;;;;;;;5044595;28;20025;-50
2023/08/03 11:02:29;;;;;;;10.63;2.75;;;;;;;;;;5045384;28;20021;-53
2023/08/03 11:04:58;;;;;;;8.23;2.65;;;;;;;;;;5044758;28;20029;-51
2023/08/03 11:07:33;;;;;;;10.65;2.42;;;;;;;;;;5045000;28;20032;-51
2023/08/03 11:10:04;;;;;;;8.65;2.50;;;;;;;;;;5044841;28;20037;-51
2023/08/03 11:12:31;;;;;;;7.30;2.45;;;;;;;;;;5045059;28;20150;-54
2023/08/03 11:14:59;;;;;;;8.20;2.40;;;;;;;;;;5044437;28;20029;-54
2023/08/03 11:17:29;;;;;;;3.28;1.70;;;;;;;;;;5044684;28;20032;-49
2023/08/03 11:20:00;;;;;;;8.38;1.90;;;;;;;;;;5044624;28;20321;-49
2023/08/03 11:22:26;;;;;;;8.25;1.52;;;;;;;;;;5044838;28;20033;-50
2023/08/03 11:24:55;;;;;;;7.25;1.90;;;;;;;;;;5044765;28;20024;-49
2023/08/03 11:27:22;;;;;;;8.73;2.05;;;;;;;;;;5044835;28;20264;-49
2023/08/03 11:29:49;;;;;;;6.72;2.20;;;;;;;;;;5044616;28;20317;-50
2023/08/03 11:32:26;;;;;;;8.30;1.98;;;;;;;;;;5044589;28;20029;-51
2023/08/03 11:35:03;;;;;;;6.95;1.70;;;;;;;;;;5043807;28;20035;-52
2023/08/03 11:37:34;;;;;;;6.15;1.90;;;;;;;;;;5044916;28;20056;-50
2023/08/03 11:40:03;;;;;;;8.00;1.83;;;;;;;;;;5044497;28;20032;-52
2023/08/03 11:42:31;;;;;;;8.10;1.80;;;;;;;;;;5044391;28;20040;-50
2023/08/03 11:44:57;;;;;;;5.88;1.70;;;;;;;;;;5043922;28;20037;-50
2023/08/03 11:47:24;;;;;;;5.13;1.80;;;;;;;;;;5044369;28;20036;-51
2023/08/03 11:49:57;;;;;;;6.55;1.60;;;;;;;;;;5043820;28;20033;-54
2023/08/03 11:52:24;;;;;;;8.68;1.80;;;;;;;;;;5044047;28;20048;-48
2023/08/03 11:54:50;;;;;;;7.35;1.60;;;;;;;;;;5043461;28;20089;-49
2023/08/03 12:00:04;;;;;;;5.38;1.80;;;;;;;;;;5043750;28;20028;-50
2023/08/03 12:02:40;;;;;;;5.32;2.03;;;;;;;;;;5044413;28;20033;-50
2023/08/03 12:05:09;;;;;;;6.25;1.70;;;;;;;;;;5043723;28;20014;-49
2023/08/03 12:07:35;;;;;;;6.13;1.80;;;;;;;;;;5044148;28;20101;-56
2023/08/03 12:10:09;;;;;;;5.38;1.80;;;;;;;;;;5043965;28;20447;-52
2023/08/03 12:12:36;;;;;;;5.45;1.80;;;;;;;;;;5043986;28;20033;-53
2023/08/03 12:15:02;;;;;;;6.38;2.00;;;;;;;;;;5043883;28;20228;-49
2023/08/03 12:17:29;;;;;;;6.47;1.60;;;;;;;;;;5043603;28;20027;-49
2023/08/03 12:19:56;;;;;;;5.68;1.73;;;;;;;;;;5043905;28;20033;-50
2023/08/03 12:22:22;;;;;;;7.75;1.90;;;;;;;;;;5044085;28;20048;-51
2023/08/03 12:24:49;;;;;;;5.53;2.13;;;;;;;;;;5043726;28;20059;-56
2023/08/03 12:27:16;;;;;;;6.28;1.90;;;;;;;;;;5044092;28;20036;-50
2023/08/03 12:29:42;;;;;;;3.83;1.73;;;;;;;;;;5043547;28;20064;-50
2023/08/03 12:32:09;;;;;;;5.53;1.67;;;;;;;;;;5043799;28;20028;-49
2023/08/03 12:34:36;;;;;;;6.55;2.00;;;;;;;;;;5043760;28;20229;-52
2023/08/03 12:37:02;;;;;;;3.45;1.80;;;;;;;;;;5043509;28;20221;-50
2023/08/03 12:39:30;;;;;;;3.65;2.00;;;;;;;;;;5043466;28;20021;-50
2023/08/03 12:41:57;;;;;;;7.18;1.90;;;;;;;;;;5043854;28;20029;-51
2023/08/03 12:44:26;;;;;;;6.90;2.38;;;;;;;;;;5043479;28;20041;-49
2023/08/03 12:46:52;;;;;;;7.70;2.00;;;;;;;;;;5043604;28;20037;-49
2023/08/03 12:49:21;;;;;;;5.90;2.22;;;;;;;;;;5043641;28;20025;-50
2023/08/03 12:51:47;;;;;;;6.55;2.42;;;;;;;;;;5043339;28;20045;-52
2023/08/03 12:54:14;;;;;;;9.32;2.13;;;;;;;;;;5043823;28;20020;-51
2023/08/03 12:56:40;;;;;;;4.97;2.33;;;;;;;;;;5043337;28;20021;-51
2023/08/03 12:59:07;;;;;;;5.72;2.20;;;;;;;;;;5042973;28;20088;-49
2023/08/03 13:01:34;;;;;;;7.93;2.28;;;;;;;;;;5043438;28;20048;-49
2023/08/03 13:04:01;;;;;;;3.95;1.77;;;;;;;;;;5042993;28;20036;-50
2023/08/03 13:06:28;;;;;;;4.60;1.70;;;;;;;;;;5045655;28;20213;-49
2023/08/03 13:08:55;;;;;;;6.85;1.88;;;;;;;;;;5046385;28;20036;-51
2023/08/03 13:11:22;;;;;;;7.35;2.20;;;;;;;;;;5048373;28;20052;-49
2023/08/03 13:13:49;;;;;;;5.88;2.13;;;;;;;;;;5066467;28;20367;-49
2023/08/03 13:16:16;;;;;;;7.57;2.33;;;;;;;;;;5066655;28;20034;-48
2023/08/03 13:18:42;;;;;;;5.03;1.77;;;;;;;;;;5067081;28;20060;-49
2023/08/03 13:21:12;;;;;;;3.13;1.70;;;;;;;;;;5066154;28;20100;-51
2023/08/03 13:23:39;;;;;;;4.35;1.75;;;;;;;;;;5066671;28;20013;-51
2023/08/03 13:26:07;;;;;;;5.65;1.90;;;;;;;;;;5066920;28;20021;-50
2023/08/03 13:28:34;;;;;;;6.40;1.95;;;;;;;;;;5066250;28;20080;-51
2023/08/03 13:31:01;;;;;;;6.07;1.92;;;;;;;;;;5066556;28;20028;-49
2023/08/03 13:33:28;;;;;;;5.47;2.00;;;;;;;;;;5066280;28;20036;-51
2023/08/03 13:35:55;;;;;;;5.10;2.22;;;;;;;;;;5066719;28;20043;-54
2023/08/03 13:38:21;;;;;;;6.45;1.95;;;;;;;;;;5066419;28;20016;-48
2023/08/03 13:40:48;;;;;;;4.90;1.83;;;;;;;;;;5065912;28;20074;-49
2023/08/03 13:43:15;;;;;;;6.00;1.77;;;;;;;;;;5066350;28;20281;-53
2023/08/03 13:45:42;;;;;;;4.70;1.90;;;;;;;;;;5066403;28;20055;-50
2023/08/03 13:48:08;;;;;;;4.68;1.67;;;;;;;;;;5065919;28;20313;-50
2023/08/03 13:50:35;;;;;;;6.05;2.00;;;;;;;;;;5066270;28;20040;-55
2023/08/03 13:53:02;;;;;;;5.03;1.83;;;;;;;;;;5066340;28;20339;-49
2023/08/03 13:55:29;;;;;;;6.57;1.75;;;;;;;;;;5066120;28;20025;-51
2023/08/03 13:57:55;;;;;;;5.72;1.63;;;;;;;;;;5066244;28;20092;-49
2023/08/03 14:00:22;;;;;;;5.00;1.90;;;;;;;;;;5066074;28;20024;-51
2023/08/03 14:02:49;;;;;;;2.58;1.80;;;;;;;;;;5066379;28;20040;-55
2023/08/03 14:05:15;;;;;;;5.53;1.75;;;;;;;;;;5065745;28;20243;-55